Aviation Digital Data Service (ADDS)

Output produced by TAFs form (2348 UTC 03 December 2016)
found at http://aviationweather.gov/adds/tafs/
 
KAEG 032333Z 0400/0424 34009KT P6SM SKC 
     FM041600 VRB05KT P6SM SKC